Time;durP1;ratioP1;P1;durP2;ratioP2;P2;SDS_P1;SDS_P2;PMS_P1;PMS_P2;Temp;Humidity;BMP_temperature;BMP_pressure;BME280_temperature;BME280_humidity;BME280_pressure;Samples;Min_cycle;Max_cycle;Signal;HPM_P1;HPM_P2
2022/07/14 00:03:07;;;;;;;6.55;2.00;;;22.90;59.70;;;;;;20445383;28;20041;-77
2022/07/14 00:13:08;;;;;;;4.70;1.57;;;22.90;59.70;;;;;;20436287;29;20045;-77
2022/07/14 00:23:09;;;;;;;5.75;1.50;;;22.90;59.60;;;;;;20465203;28;20114;-78
2022/07/14 00:33:09;;;;;;;8.07;1.60;;;22.80;59.40;;;;;;20445094;29;20068;-77
2022/07/14 00:43:10;;;;;;;6.10;1.45;;;22.80;59.40;;;;;;20455307;29;20302;-77
2022/07/14 00:53:11;;;;;;;6.57;2.00;;;22.70;59.10;;;;;;20870045;23;20045;-77
2022/07/14 01:03:12;;;;;;;5.28;1.35;;;22.70;58.90;;;;;;20602560;28;20125;-78
2022/07/14 01:13:12;;;;;;;3.92;1.45;;;22.70;58.80;;;;;;20602629;28;20033;-77
2022/07/14 01:23:13;;;;;;;3.55;1.38;;;22.70;58.60;;;;;;20643148;28;20097;-77
2022/07/14 01:33:14;;;;;;;5.07;1.20;;;22.70;58.50;;;;;;20636525;28;20038;-77
2022/07/14 01:43:15;;;;;;;7.50;1.42;;;22.60;58.30;;;;;;20652969;28;20290;-77
2022/07/14 01:53:15;;;;;;;6.30;1.40;;;22.60;58.20;;;;;;20650694;28;20503;-77
2022/07/14 02:03:16;;;;;;;9.55;1.70;;;22.50;58.10;;;;;;20641297;28;20031;-77
2022/07/14 02:13:17;;;;;;;6.03;1.48;;;22.40;58.00;;;;;;20650703;28;20221;-78
2022/07/14 02:23:17;;;;;;;6.47;1.42;;;22.30;57.90;;;;;;20632669;28;20487;-77
2022/07/14 02:33:18;;;;;;;5.47;1.33;;;22.20;57.80;;;;;;20645208;28;20030;-77
2022/07/14 02:43:19;;;;;;;8.17;1.53;;;22.20;57.70;;;;;;20646192;28;20085;-77
2022/07/14 02:53:20;;;;;;;8.00;1.65;;;22.10;57.70;;;;;;20630765;28;20373;-77
2022/07/14 03:03:22;;;;;;;3.97;1.23;;;22.10;57.60;;;;;;20645777;28;20050;-77
2022/07/14 03:13:23;;;;;;;6.85;1.88;;;22.00;57.40;;;;;;20660428;28;20113;-77
2022/07/14 03:23:23;;;;;;;11.38;2.28;;;21.90;57.30;;;;;;20629095;28;20396;-77
2022/07/14 03:33:25;;;;;;;5.32;1.23;;;21.90;57.20;;;;;;20627872;28;20033;-77
2022/07/14 03:43:26;;;;;;;7.85;1.83;;;21.80;57.20;;;;;;20658904;28;20038;-78
2022/07/14 03:53:30;;;;;;;3.58;1.35;;;21.70;57.60;;;;;;20642681;28;20030;-76
2022/07/14 04:03:31;;;;;;;6.97;1.48;;;21.70;56.90;;;;;;20603933;28;20133;-77
2022/07/14 04:13:32;;;;;;;5.50;1.50;;;21.60;56.80;;;;;;20626187;28;20370;-77
2022/07/14 04:23:33;;;;;;;3.40;1.10;;;21.50;56.70;;;;;;20641475;28;20101;-77
2022/07/14 04:33:34;;;;;;;8.48;1.58;;;21.50;56.80;;;;;;20608147;28;20026;-78
2022/07/14 04:43:36;;;;;;;6.00;1.60;;;21.50;57.00;;;;;;20630818;28;20052;-78
2022/07/14 04:53:40;;;;;;;5.03;1.67;;;21.50;57.30;;;;;;20644073;28;20069;-77
2022/07/14 05:04:00;;;;;;;11.27;2.45;;;21.50;57.50;;;;;;20641250;28;20054;-76
2022/07/14 05:14:01;;;;;;;7.40;1.38;;;21.50;57.80;;;;;;20653730;28;20030;-74
2022/07/14 05:24:03;;;;;;;3.67;1.50;;;21.40;57.90;;;;;;20669207;28;20125;-73
2022/07/14 05:34:03;;;;;;;7.30;2.00;;;21.50;58.00;;;;;;20652016;28;20114;-73
2022/07/14 05:44:04;;;;;;;3.67;1.30;;;21.50;58.00;;;;;;20667384;28;20464;-74
2022/07/14 05:54:06;;;;;;;5.90;1.95;;;21.50;58.10;;;;;;20650475;28;20844;-73
2022/07/14 06:04:07;;;;;;;3.35;1.27;;;21.50;58.20;;;;;;20630966;28;20129;-73
2022/07/14 06:14:08;;;;;;;7.65;1.77;;;21.50;58.20;;;;;;20614251;28;20473;-74
2022/07/14 06:24:12;;;;;;;3.58;0.98;;;21.50;58.20;;;;;;20629621;28;20042;-71
2022/07/14 06:34:12;;;;;;;3.80;1.25;;;21.60;58.20;;;;;;20633499;28;20073;-71
2022/07/14 06:44:24;;;;;;;4.20;1.30;;;21.60;58.10;;;;;;20618463;28;20125;-72
2022/07/14 06:54:27;;;;;;;2.95;0.82;;;21.60;58.10;;;;;;20630614;28;20589;-71
2022/07/14 07:04:28;;;;;;;4.30;1.42;;;21.60;58.00;;;;;;20613023;28;20137;-73
2022/07/14 07:14:28;;;;;;;2.85;0.95;;;21.60;58.00;;;;;;20644189;28;20061;-74
2022/07/14 07:24:29;;;;;;;5.78;1.10;;;21.60;58.00;;;;;;20632869;28;20132;-73
2022/07/14 07:34:31;;;;;;;3.67;1.30;;;21.70;58.10;;;;;;20619842;28;20104;-74
2022/07/14 07:44:32;;;;;;;5.78;1.20;;;21.70;57.80;;;;;;20642076;28;20042;-76
2022/07/14 07:54:33;;;;;;;4.28;1.40;;;21.60;57.70;;;;;;20627085;28;20474;-75
2022/07/14 08:04:34;;;;;;;2.75;0.85;;;21.70;57.60;;;;;;20632978;28;20038;-73
2022/07/14 08:14:50;;;;;;;3.75;0.85;;;21.70;57.40;;;;;;20640289;28;20477;-73
2022/07/14 08:24:51;;;;;;;1.80;0.57;;;21.70;57.10;;;;;;20645839;28;20046;-74
2022/07/14 08:34:51;;;;;;;3.15;0.80;;;21.70;57.10;;;;;;20666744;28;20045;-74
2022/07/14 08:44:52;;;;;;;2.75;0.60;;;21.80;57.10;;;;;;20664782;28;20035;-74
2022/07/14 08:54:53;;;;;;;3.80;0.70;;;21.80;57.10;;;;;;20664939;28;20030;-74
2022/07/14 09:04:53;;;;;;;2.45;0.55;;;21.80;56.80;;;;;;20664422;28;20038;-77
2022/07/14 09:25:15;;;;;;;10.77;1.20;;;21.80;56.30;;;;;;20677867;28;20035;-72
2022/07/14 09:35:20;;;;;;;5.18;1.40;;;21.80;56.10;;;;;;20655486;28;20062;-73
2022/07/14 09:45:25;;;;;;;2.45;0.95;;;21.80;56.30;;;;;;20634819;28;20120;-74
2022/07/14 09:55:27;;;;;;;6.57;1.90;;;21.90;56.40;;;;;;20640451;28;20565;-71
2022/07/14 10:05:28;;;;;;;3.10;1.15;;;21.80;56.20;;;;;;20648640;28;20038;-70
2022/07/14 10:15:29;;;;;;;3.17;1.00;;;21.80;55.90;;;;;;20618137;28;20515;-74
2022/07/14 10:25:29;;;;;;;3.83;1.10;;;21.90;55.60;;;;;;20650972;28;20041;-73
2022/07/14 10:35:35;;;;;;;5.63;1.20;;;21.90;55.80;;;;;;20617420;28;20149;-74
2022/07/14 10:45:45;;;;;;;5.10;1.15;;;21.90;55.70;;;;;;20642647;28;20034;-74
2022/07/14 10:55:46;;;;;;;3.67;0.80;;;21.90;55.70;;;;;;20629244;28;20046;-75
2022/07/14 11:06:07;;;;;;;1.70;0.85;;;21.90;55.50;;;;;;20642486;28;20026;-75
2022/07/14 11:16:09;;;;;;;1.65;1.05;;;21.90;55.60;;;;;;20639366;28;20133;-74
2022/07/14 11:26:33;;;;;;;1.52;0.73;;;22.00;55.60;;;;;;20658754;28;20062;-74
2022/07/14 11:36:34;;;;;;;2.95;0.88;;;22.00;55.50;;;;;;20644428;28;20049;-74
2022/07/14 11:46:34;;;;;;;2.65;0.60;;;22.00;55.40;;;;;;20627599;28;20046;-76
2022/07/14 11:56:35;;;;;;;2.17;0.68;;;22.00;55.20;;;;;;20622557;28;20073;-74
2022/07/14 12:06:40;;;;;;;3.10;1.00;;;22.00;55.00;;;;;;20640361;28;20030;-76
2022/07/14 12:16:41;;;;;;;1.40;0.60;;;22.00;54.70;;;;;;20624869;28;20382;-74
2022/07/14 12:26:42;;;;;;;4.80;0.70;;;22.00;54.40;;;;;;20621448;28;20038;-74
2022/07/14 12:36:42;;;;;;;1.60;0.65;;;22.00;54.00;;;;;;20631578;28;20041;-74
2022/07/14 12:46:43;;;;;;;1.48;0.35;;;22.10;53.50;;;;;;20623930;28;20117;-75
2022/07/14 12:56:43;;;;;;;3.33;0.70;;;22.10;52.50;;;;;;20623972;28;20453;-75
2022/07/14 13:06:45;;;;;;;2.17;0.63;;;22.10;52.00;;;;;;20634617;28;20691;-72
2022/07/14 13:16:47;;;;;;;1.60;0.65;;;22.10;51.90;;;;;;20665417;28;20473;-75
2022/07/14 13:27:18;;;;;;;4.97;0.73;;;22.10;51.80;;;;;;20620860;28;20404;-76
2022/07/14 13:37:18;;;;;;;2.53;0.50;;;22.10;51.40;;;;;;20644215;28;20054;-76
2022/07/14 13:47:19;;;;;;;2.65;0.73;;;22.20;51.60;;;;;;20635470;28;20134;-76
2022/07/14 13:57:19;;;;;;;0.63;0.40;;;22.10;51.60;;;;;;20636044;28;20396;-75
2022/07/14 14:07:20;;;;;;;1.98;0.70;;;22.00;51.60;;;;;;20649054;28;20042;-76
2022/07/14 14:17:21;;;;;;;1.33;0.50;;;22.10;51.40;;;;;;20679345;28;20042;-76
2022/07/14 14:27:21;;;;;;;1.10;0.67;;;22.10;51.20;;;;;;20614626;28;20112;-76
2022/07/14 14:37:22;;;;;;;3.33;0.87;;;22.10;50.60;;;;;;20647814;28;20327;-75
2022/07/14 14:47:22;;;;;;;2.80;0.77;;;22.10;50.30;;;;;;20630685;28;20042;-74
2022/07/14 14:57:23;;;;;;;5.65;0.80;;;22.10;50.10;;;;;;20645591;28;20323;-75
2022/07/14 15:07:24;;;;;;;4.32;0.60;;;22.10;50.00;;;;;;20645172;28;20124;-78
2022/07/14 15:17:27;;;;;;;3.50;1.00;;;22.10;49.80;;;;;;20645974;28;20031;-76
2022/07/14 15:27:28;;;;;;;0.63;0.30;;;22.30;49.50;;;;;;20612389;28;20537;-74
2022/07/14 15:37:28;;;;;;;3.17;0.68;;;22.30;49.20;;;;;;20636067;28;20110;-74
2022/07/14 15:47:29;;;;;;;1.60;0.47;;;22.50;49.10;;;;;;20660162;28;20038;-77
2022/07/14 15:57:30;;;;;;;1.08;0.50;;;22.60;48.90;;;;;;20640309;28;20030;-74
2022/07/14 16:07:31;;;;;;;1.42;0.47;;;22.70;48.80;;;;;;20640928;28;20462;-74
2022/07/14 16:17:31;;;;;;;2.53;0.52;;;22.80;48.90;;;;;;20640824;28;20117;-76
2022/07/14 16:27:32;;;;;;;5.15;0.63;;;22.80;48.90;;;;;;20601770;28;20034;-78
2022/07/14 16:37:32;;;;;;;3.53;0.60;;;22.80;49.00;;;;;;20627418;28;20109;-75
2022/07/14 16:47:34;;;;;;;1.85;0.63;;;22.80;49.10;;;;;;20662856;28;20125;-74
2022/07/14 16:57:35;;;;;;;2.78;0.52;;;22.70;48.90;;;;;;20641094;28;20126;-75
2022/07/14 17:07:35;;;;;;;0.50;0.20;;;22.50;48.90;;;;;;20624562;28;20121;-75
2022/07/14 17:17:36;;;;;;;1.00;0.32;;;22.40;49.10;;;;;;20657432;28;20081;-75
2022/07/14 17:27:37;;;;;;;3.33;0.52;;;22.40;49.50;;;;;;20653177;28;20042;-83
2022/07/14 17:37:38;;;;;;;0.88;0.40;;;22.30;49.90;;;;;;20650328;28;20495;-78
2022/07/14 17:47:38;;;;;;;1.50;0.40;;;22.20;50.40;;;;;;20630638;28;20034;-79
2022/07/14 17:57:39;;;;;;;1.63;0.40;;;22.20;50.90;;;;;;20646349;28;20042;-79
2022/07/14 18:07:40;;;;;;;1.48;0.40;;;22.20;51.10;;;;;;20665402;28;20088;-79
2022/07/14 18:17:40;;;;;;;0.63;0.30;;;22.20;51.20;;;;;;20660293;28;20034;-80
2022/07/14 18:27:42;;;;;;;0.60;0.47;;;22.20;51.30;;;;;;20645095;28;20493;-78
2022/07/14 18:37:42;;;;;;;3.88;0.65;;;22.10;51.40;;;;;;20613822;28;20069;-79
2022/07/14 18:47:43;;;;;;;0.73;0.38;;;22.10;51.50;;;;;;20602806;28;20577;-79
2022/07/14 18:57:43;;;;;;;0.40;0.30;;;22.10;51.70;;;;;;20619907;28;20502;-78
2022/07/14 19:07:44;;;;;;;0.30;0.23;;;22.10;51.70;;;;;;20656733;28;20427;-77
2022/07/14 19:17:45;;;;;;;3.35;0.40;;;22.10;51.80;;;;;;20631014;28;20304;-75
2022/07/14 19:27:45;;;;;;;1.83;0.30;;;22.00;51.80;;;;;;20655886;28;20034;-79
2022/07/14 19:37:46;;;;;;;0.85;0.75;;;22.10;51.80;;;;;;20622546;28;20301;-79
2022/07/14 19:47:47;;;;;;;2.42;0.30;;;22.00;51.80;;;;;;20631665;28;20030;-78
2022/07/14 19:57:48;;;;;;;2.38;0.50;;;22.00;51.80;;;;;;20625889;28;20503;-79
2022/07/14 20:07:49;;;;;;;1.30;0.40;;;22.00;51.80;;;;;;20609247;28;20046;-79
2022/07/14 20:17:50;;;;;;;0.80;0.40;;;22.00;51.80;;;;;;20625616;28;20129;-80
2022/07/14 20:38:10;;;;;;;1.73;0.50;;;21.90;51.80;;;;;;20643915;28;20046;-80
2022/07/14 20:48:11;;;;;;;3.83;0.40;;;21.80;51.70;;;;;;20648310;28;20200;-82
2022/07/14 20:58:12;;;;;;;0.30;0.25;;;21.70;51.70;;;;;;20658728;28;20069;-81
2022/07/14 21:08:13;;;;;;;2.50;0.63;;;21.70;51.80;;;;;;20624780;28;20042;-81
2022/07/14 21:18:13;;;;;;;0.63;0.30;;;21.70;51.80;;;;;;20623354;28;20034;-80
2022/07/14 21:28:14;;;;;;;1.35;0.43;;;21.70;51.90;;;;;;20639972;28;20093;-80
2022/07/14 21:38:15;;;;;;;1.35;0.50;;;21.70;52.00;;;;;;20633662;28;20117;-80
2022/07/14 21:48:15;;;;;;;1.23;0.60;;;21.70;52.10;;;;;;20636263;28;20042;-76
2022/07/14 21:58:16;;;;;;;2.58;0.40;;;21.70;52.10;;;;;;20647294;28;20497;-74
2022/07/14 22:08:16;;;;;;;0.85;0.50;;;21.60;52.10;;;;;;20612842;28;20034;-75
2022/07/14 22:18:17;;;;;;;0.80;0.40;;;21.60;52.20;;;;;;20666751;28;20034;-74
2022/07/14 22:28:18;;;;;;;2.83;0.70;;;21.50;52.20;;;;;;20615620;28;20180;-75
2022/07/14 22:38:18;;;;;;;2.60;0.50;;;21.50;52.30;;;;;;20648723;28;20035;-74
2022/07/14 22:48:19;;;;;;;1.05;0.57;;;21.40;52.50;;;;;;20631172;28;20188;-75
2022/07/14 22:58:19;;;;;;;4.60;1.37;;;21.30;52.60;;;;;;20646598;28;20049;-74
2022/07/14 23:08:20;;;;;;;2.30;0.73;;;21.30;52.60;;;;;;20646116;28;20293;-75
2022/07/14 23:18:20;;;;;;;1.30;0.50;;;21.30;52.80;;;;;;20663310;28;20046;-76
2022/07/14 23:28:21;;;;;;;0.47;0.32;;;21.20;52.90;;;;;;20629283;28;20096;-75
2022/07/14 23:38:22;;;;;;;2.17;0.73;;;21.10;53.00;;;;;;20644369;28;20125;-75
2022/07/14 23:48:22;;;;;;;3.60;0.82;;;21.10;53.10;;;;;;20627932;28;20054;-76
2022/07/14 23:58:23;;;;;;;3.45;0.70;;;21.10;53.20;;;;;;20634577;28;20105;-75
